Time;durP1;ratioP1;P1;durP2;ratioP2;P2;SDS_P1;SDS_P2;PMS_P1;PMS_P2;Temp;Humidity;BMP_temperature;BMP_pressure;BME280_temperature;BME280_humidity;BME280_pressure;Samples;Min_cycle;Max_cycle;Signal;HPM_P1;HPM_P2
2021/08/02 00:00:50;;;;;;;0.70;0.50;;;21.90;72.30;;;;;;5051234;28;20052;-51
2021/08/02 00:03:53;;;;;;;0.80;0.50;;;21.90;72.30;;;;;;5049473;28;20091;-49
2021/08/02 00:06:27;;;;;;;0.43;0.43;;;21.90;72.30;;;;;;5049380;28;20068;-47
2021/08/02 00:09:07;;;;;;;0.68;0.40;;;21.90;72.40;;;;;;5051308;28;20409;-51
2021/08/02 00:11:39;;;;;;;1.02;0.43;;;21.90;72.30;;;;;;5050471;28;20131;-48
2021/08/02 00:14:07;;;;;;;1.63;0.68;;;21.90;72.40;;;;;;5051260;28;20051;-49
2021/08/02 00:16:35;;;;;;;0.90;0.43;;;21.90;72.40;;;;;;5052489;28;20045;-52
2021/08/02 00:19:02;;;;;;;0.57;0.43;;;21.90;72.50;;;;;;5055135;28;20037;-52
2021/08/02 00:21:28;;;;;;;0.40;0.40;;;21.90;72.50;;;;;;5054900;28;20056;-47
2021/08/02 00:23:54;;;;;;;1.00;0.47;;;21.90;72.50;;;;;;5055098;28;20041;-51
2021/08/02 00:26:22;;;;;;;0.50;0.50;;;21.90;72.50;;;;;;5055119;28;20071;-52
2021/08/02 00:28:48;;;;;;;0.60;0.55;;;21.90;72.50;;;;;;5054728;28;20037;-52
2021/08/02 00:31:15;;;;;;;1.25;0.43;;;21.90;72.50;;;;;;5054725;28;20371;-51
2021/08/02 00:33:40;;;;;;;0.45;0.40;;;21.90;72.50;;;;;;5054959;28;20048;-51
2021/08/02 00:36:31;;;;;;;0.70;0.70;;;21.90;72.50;;;;;;5054742;28;20048;-51
2021/08/02 00:39:10;;;;;;;0.40;0.40;;;21.90;72.50;;;;;;5052631;28;20049;-51
2021/08/02 00:41:55;;;;;;;0.50;0.50;;;21.90;72.50;;;;;;5052037;28;20076;-52
2021/08/02 00:44:48;;;;;;;0.98;0.60;;;21.90;72.50;;;;;;5052539;28;20045;-52
2021/08/02 00:47:22;;;;;;;0.95;0.55;;;21.90;72.50;;;;;;5054880;28;20049;-50
2021/08/02 00:50:02;;;;;;;0.50;0.50;;;21.90;72.50;;;;;;5054781;28;20048;-51
2021/08/02 00:52:30;;;;;;;1.17;0.50;;;21.90;72.50;;;;;;5053408;28;20045;-49
2021/08/02 00:54:59;;;;;;;0.50;0.47;;;21.90;72.50;;;;;;5051941;28;20040;-48
2021/08/02 00:57:30;;;;;;;0.52;0.52;;;21.80;72.50;;;;;;5054582;28;20401;-49
2021/08/02 01:00:03;;;;;;;1.20;0.35;;;21.90;72.50;;;;;;5051684;28;20045;-51
2021/08/02 01:02:36;;;;;;;1.05;0.70;;;21.90;72.60;;;;;;5054347;28;20049;-51
2021/08/02 01:05:03;;;;;;;0.75;0.40;;;21.80;72.50;;;;;;5052528;28;20041;-50
2021/08/02 01:07:31;;;;;;;0.63;0.50;;;21.80;72.50;;;;;;5054303;28;20083;-50
2021/08/02 01:09:57;;;;;;;0.65;0.40;;;21.80;72.50;;;;;;5052266;28;20052;-52
2021/08/02 01:12:25;;;;;;;0.38;0.38;;;21.80;72.50;;;;;;5053917;28;20107;-51
2021/08/02 01:14:54;;;;;;;1.05;0.60;;;21.80;72.50;;;;;;5053711;28;20049;-49
2021/08/02 01:17:20;;;;;;;0.88;0.50;;;21.80;72.50;;;;;;5054416;28;20078;-48
2021/08/02 01:19:49;;;;;;;0.40;0.40;;;21.80;72.50;;;;;;5053580;28;20489;-51
2021/08/02 01:22:20;;;;;;;0.65;0.47;;;21.80;72.60;;;;;;5053445;28;20044;-50
2021/08/02 01:24:46;;;;;;;0.88;0.52;;;21.80;72.60;;;;;;5054217;28;20045;-49
2021/08/02 01:27:46;;;;;;;0.63;0.55;;;21.80;72.50;;;;;;5054293;28;20099;-50
2021/08/02 01:30:18;;;;;;;0.47;0.40;;;21.80;72.50;;;;;;5052689;28;20044;-50
2021/08/02 01:32:45;;;;;;;0.40;0.35;;;21.80;72.60;;;;;;5053637;28;20041;-52
2021/08/02 01:35:13;;;;;;;0.47;0.47;;;21.80;72.60;;;;;;5053480;28;20045;-50
2021/08/02 01:37:40;;;;;;;0.47;0.45;;;21.80;72.60;;;;;;5053897;28;20052;-51
2021/08/02 01:40:07;;;;;;;0.50;0.50;;;21.80;72.60;;;;;;5053802;28;20489;-51
2021/08/02 01:42:33;;;;;;;0.47;0.47;;;21.80;72.60;;;;;;5053718;28;20059;-50
2021/08/02 01:44:59;;;;;;;0.95;0.45;;;21.80;72.60;;;;;;5052231;28;20128;-50
2021/08/02 01:47:52;;;;;;;0.40;0.40;;;21.80;72.60;;;;;;5053321;28;20041;-51
2021/08/02 01:50:35;;;;;;;0.50;0.40;;;21.80;72.60;;;;;;5053483;28;20040;-51
2021/08/02 01:53:17;;;;;;;0.50;0.50;;;21.80;72.60;;;;;;5051225;28;20095;-51
2021/08/02 01:55:49;;;;;;;1.33;0.43;;;21.80;72.60;;;;;;5051853;28;20049;-52
2021/08/02 01:58:15;;;;;;;0.50;0.50;;;21.80;72.60;;;;;;5053065;28;20050;-50
2021/08/02 02:00:49;;;;;;;0.70;0.50;;;21.80;72.70;;;;;;5053336;28;20540;-46
2021/08/02 02:03:18;;;;;;;0.85;0.43;;;21.80;72.60;;;;;;5052359;28;20044;-52
2021/08/02 02:05:48;;;;;;;0.45;0.40;;;21.80;72.60;;;;;;5053411;28;20440;-50
2021/08/02 02:08:28;;;;;;;0.82;0.82;;;21.80;72.60;;;;;;5052864;28;20052;-52
2021/08/02 02:10:57;;;;;;;0.68;0.60;;;21.80;72.60;;;;;;5053158;28;20055;-49
2021/08/02 02:13:37;;;;;;;0.50;0.50;;;21.80;72.70;;;;;;5052687;28;20469;-50
2021/08/02 02:16:03;;;;;;;0.63;0.52;;;21.80;72.60;;;;;;5051173;28;20048;-50
2021/08/02 02:18:34;;;;;;;0.55;0.52;;;21.80;72.60;;;;;;5052503;28;20539;-47
2021/08/02 02:21:03;;;;;;;0.40;0.40;;;21.80;72.70;;;;;;5050953;28;20045;-50
2021/08/02 02:23:29;;;;;;;0.45;0.40;;;21.80;72.70;;;;;;5052623;28;20041;-46
2021/08/02 02:25:56;;;;;;;1.13;0.52;;;21.80;72.70;;;;;;5052721;28;20127;-51
2021/08/02 02:28:22;;;;;;;1.10;0.60;;;21.80;72.70;;;;;;5053056;28;20037;-47
2021/08/02 02:30:49;;;;;;;0.50;0.50;;;21.80;72.60;;;;;;5052845;28;20404;-52
2021/08/02 02:33:17;;;;;;;0.57;0.40;;;21.80;72.60;;;;;;5052401;28;20161;-51
2021/08/02 02:35:46;;;;;;;0.52;0.40;;;21.80;72.60;;;;;;5052219;28;20080;-48
2021/08/02 02:38:14;;;;;;;0.90;0.60;;;21.80;72.60;;;;;;5050259;28;20079;-52
2021/08/02 02:40:45;;;;;;;0.47;0.40;;;21.80;72.60;;;;;;5052587;28;20049;-48
2021/08/02 02:43:12;;;;;;;0.60;0.60;;;21.80;72.60;;;;;;5052326;28;20064;-50
2021/08/02 02:45:40;;;;;;;2.42;0.63;;;21.80;72.60;;;;;;5052841;28;20051;-52
2021/08/02 02:48:07;;;;;;;1.27;0.40;;;21.80;72.60;;;;;;5052887;28;20044;-51
2021/08/02 02:50:37;;;;;;;0.60;0.55;;;21.70;72.60;;;;;;5050033;28;20059;-50
2021/08/02 02:53:04;;;;;;;1.17;0.70;;;21.80;72.60;;;;;;5051706;28;20770;-52
2021/08/02 02:55:32;;;;;;;0.50;0.40;;;21.70;72.50;;;;;;5052600;28;20052;-52
2021/08/02 02:58:01;;;;;;;0.50;0.50;;;21.80;72.60;;;;;;5052665;28;20075;-51
2021/08/02 03:00:27;;;;;;;0.68;0.38;;;21.70;72.60;;;;;;5051267;28;20049;-50
2021/08/02 03:02:56;;;;;;;0.55;0.50;;;21.70;72.60;;;;;;5052435;28;20459;-49
2021/08/02 03:05:23;;;;;;;0.68;0.40;;;21.70;72.60;;;;;;5051494;28;20509;-51
2021/08/02 03:07:57;;;;;;;0.85;0.50;;;21.70;72.60;;;;;;5052580;28;20091;-52
2021/08/02 03:10:25;;;;;;;0.45;0.40;;;21.70;72.60;;;;;;5052386;28;20099;-50
2021/08/02 03:12:52;;;;;;;0.38;0.38;;;21.70;72.60;;;;;;5052084;28;20049;-49
2021/08/02 03:15:19;;;;;;;0.30;0.30;;;21.70;72.60;;;;;;5051892;28;20087;-48
2021/08/02 03:17:45;;;;;;;0.95;0.50;;;21.80;72.70;;;;;;5051966;28;20132;-51
2021/08/02 03:20:13;;;;;;;0.40;0.40;;;21.70;72.60;;;;;;5051582;28;20048;-50
2021/08/02 03:23:20;;;;;;;0.47;0.40;;;21.70;72.60;;;;;;5052079;28;20387;-50
2021/08/02 03:25:53;;;;;;;0.40;0.40;;;21.70;72.60;;;;;;5029821;28;20048;-48
2021/08/02 03:28:31;;;;;;;0.45;0.40;;;21.70;72.60;;;;;;5029930;28;20045;-45
2021/08/02 03:31:00;;;;;;;0.60;0.50;;;21.70;72.60;;;;;;5029991;28;20057;-49
2021/08/02 03:33:34;;;;;;;0.63;0.50;;;21.70;72.60;;;;;;5029944;28;20116;-50
2021/08/02 03:36:07;;;;;;;0.43;0.40;;;21.70;72.70;;;;;;5028607;28;20080;-52
2021/08/02 03:38:35;;;;;;;0.55;0.50;;;21.70;72.70;;;;;;5027859;28;20045;-50
2021/08/02 03:41:04;;;;;;;0.70;0.60;;;21.70;72.70;;;;;;5029728;28;20053;-51
2021/08/02 03:43:33;;;;;;;0.60;0.50;;;21.70;72.70;;;;;;5029609;28;20490;-51
2021/08/02 03:46:00;;;;;;;0.95;0.40;;;21.70;72.70;;;;;;5028925;28;20091;-51
2021/08/02 03:48:26;;;;;;;0.75;0.50;;;21.70;72.70;;;;;;5028890;28;20065;-48
2021/08/02 03:50:52;;;;;;;0.73;0.40;;;21.70;72.70;;;;;;5028741;28;20041;-46
2021/08/02 03:53:18;;;;;;;1.45;0.57;;;21.70;72.80;;;;;;5031956;28;20050;-46
2021/08/02 03:55:45;;;;;;;1.10;0.43;;;21.70;72.70;;;;;;5036998;28;20135;-51
2021/08/02 03:58:11;;;;;;;0.32;0.32;;;21.70;72.70;;;;;;5055561;28;20044;-48
2021/08/02 04:00:38;;;;;;;1.65;0.50;;;21.70;72.70;;;;;;5055860;28;20053;-51
2021/08/02 04:03:05;;;;;;;0.30;0.30;;;21.70;72.70;;;;;;5055929;28;20136;-52
2021/08/02 04:05:31;;;;;;;0.70;0.50;;;21.70;72.70;;;;;;5055337;28;20103;-50
2021/08/02 04:07:58;;;;;;;0.50;0.40;;;21.70;72.70;;;;;;5055237;28;20044;-51
2021/08/02 04:10:26;;;;;;;1.30;0.60;;;21.70;72.70;;;;;;5055105;28;20104;-51
2021/08/02 04:12:52;;;;;;;0.60;0.47;;;21.70;72.70;;;;;;5055455;28;20056;-51
2021/08/02 04:15:18;;;;;;;0.65;0.50;;;21.70;72.70;;;;;;5054960;28;20049;-50
2021/08/02 04:17:44;;;;;;;0.88;0.40;;;21.50;72.60;;;;;;5055296;28;20048;-49
2021/08/02 04:20:10;;;;;;;0.50;0.40;;;21.70;72.70;;;;;;5055378;28;20099;-48
2021/08/02 04:22:36;;;;;;;0.70;0.52;;;21.70;72.70;;;;;;5055486;28;20067;-49
2021/08/02 04:25:02;;;;;;;1.00;0.52;;;21.70;72.70;;;;;;5054136;28;20041;-51
2021/08/02 04:27:28;;;;;;;0.52;0.50;;;21.70;72.60;;;;;;5055128;28;20072;-50
2021/08/02 04:29:53;;;;;;;0.47;0.47;;;21.70;72.70;;;;;;5055143;28;20512;-50
2021/08/02 04:32:19;;;;;;;0.47;0.47;;;21.70;72.70;;;;;;5055215;28;20049;-50
2021/08/02 04:34:45;;;;;;;0.85;0.57;;;21.70;72.70;;;;;;5054500;28;20048;-52
2021/08/02 04:37:11;;;;;;;0.55;0.45;;;21.70;72.60;;;;;;5051346;28;20045;-49
2021/08/02 04:39:37;;;;;;;0.30;0.30;;;21.60;72.60;;;;;;5054444;28;20564;-52
2021/08/02 04:42:03;;;;;;;0.40;0.40;;;21.60;72.60;;;;;;5055075;28;20080;-48
2021/08/02 04:44:29;;;;;;;0.52;0.40;;;21.60;72.60;;;;;;5055206;28;20041;-51
2021/08/02 04:46:55;;;;;;;0.40;0.40;;;21.70;72.60;;;;;;5054677;28;20045;-49
2021/08/02 04:49:21;;;;;;;0.30;0.30;;;21.60;72.60;;;;;;5054774;28;20447;-50
2021/08/02 04:51:47;;;;;;;0.57;0.40;;;21.70;72.60;;;;;;5050543;28;20045;-51
2021/08/02 04:54:12;;;;;;;0.50;0.40;;;21.60;72.60;;;;;;5051294;28;20056;-51
2021/08/02 04:56:38;;;;;;;0.38;0.38;;;21.70;72.60;;;;;;5050216;28;20052;-51
2021/08/02 04:59:04;;;;;;;0.40;0.40;;;21.60;72.60;;;;;;5051509;28;20049;-46
2021/08/02 05:01:32;;;;;;;0.40;0.40;;;21.60;72.60;;;;;;5050066;28;20041;-49
2021/08/02 05:03:57;;;;;;;1.10;0.50;;;21.60;72.60;;;;;;5050305;28;20060;-49
2021/08/02 05:06:23;;;;;;;0.50;0.50;;;21.60;72.60;;;;;;5050921;28;20098;-49
2021/08/02 05:08:49;;;;;;;0.80;0.50;;;21.60;72.60;;;;;;5051121;28;20049;-47
2021/08/02 05:11:14;;;;;;;1.27;0.57;;;21.60;72.60;;;;;;5050732;28;20049;-47
2021/08/02 05:13:40;;;;;;;0.85;0.40;;;21.70;72.60;;;;;;5051408;28;20124;-50
2021/08/02 05:16:07;;;;;;;0.52;0.50;;;21.60;72.60;;;;;;5050646;28;20099;-49
2021/08/02 05:18:34;;;;;;;0.40;0.40;;;21.60;72.60;;;;;;5050976;28;20044;-50
2021/08/02 05:21:00;;;;;;;0.43;0.43;;;21.60;72.60;;;;;;5051276;28;20060;-51
2021/08/02 05:23:26;;;;;;;0.95;0.70;;;21.60;72.60;;;;;;5051029;28;20512;-51
2021/08/02 05:25:52;;;;;;;0.63;0.40;;;21.60;72.60;;;;;;5050430;28;20053;-46
2021/08/02 05:28:20;;;;;;;0.40;0.40;;;21.60;73.30;;;;;;5051095;28;20087;-45
2021/08/02 05:30:46;;;;;;;0.50;0.50;;;21.60;72.60;;;;;;5050103;28;20080;-51
2021/08/02 05:33:13;;;;;;;0.90;0.50;;;21.60;72.60;;;;;;5050690;28;20508;-46
2021/08/02 05:35:39;;;;;;;0.93;0.57;;;21.60;72.60;;;;;;5050326;28;20136;-50
2021/08/02 05:38:05;;;;;;;0.52;0.50;;;21.60;72.60;;;;;;5050619;28;20081;-49
2021/08/02 05:40:32;;;;;;;0.63;0.32;;;21.60;72.60;;;;;;5050840;28;20049;-51
2021/08/02 05:42:59;;;;;;;0.63;0.38;;;21.60;72.60;;;;;;5049950;28;20053;-50
2021/08/02 05:45:25;;;;;;;0.75;0.60;;;21.60;72.60;;;;;;5050692;28;20048;-50
2021/08/02 05:47:52;;;;;;;1.05;0.60;;;21.60;72.60;;;;;;5050424;28;20052;-45
2021/08/02 05:50:18;;;;;;;0.85;0.50;;;21.60;72.60;;;;;;5051026;28;20041;-51
2021/08/02 05:52:44;;;;;;;0.55;0.50;;;21.60;72.60;;;;;;5050738;28;20049;-52
2021/08/02 05:55:11;;;;;;;0.93;0.60;;;21.60;72.60;;;;;;5050061;28;20102;-51
2021/08/02 05:57:36;;;;;;;0.60;0.60;;;21.60;72.60;;;;;;5049740;28;20053;-51
2021/08/02 06:00:05;;;;;;;0.70;0.60;;;21.60;72.60;;;;;;5050261;28;20494;-51
2021/08/02 06:02:30;;;;;;;0.90;0.70;;;21.60;72.70;;;;;;5050168;28;20052;-51
2021/08/02 06:04:56;;;;;;;0.50;0.50;;;21.60;72.70;;;;;;5050409;28;20052;-46
2021/08/02 06:07:22;;;;;;;0.52;0.50;;;21.60;72.60;;;;;;5049542;28;20120;-47
2021/08/02 06:09:49;;;;;;;0.40;0.40;;;21.60;72.60;;;;;;5048896;28;20060;-48
2021/08/02 06:12:24;;;;;;;0.63;0.50;;;21.60;72.60;;;;;;5049968;28;20061;-47
2021/08/02 06:14:54;;;;;;;0.40;0.40;;;21.60;72.60;;;;;;5049149;28;20045;-45
2021/08/02 06:17:20;;;;;;;1.00;0.60;;;21.60;72.60;;;;;;5049595;28;20090;-48
2021/08/02 06:19:46;;;;;;;0.75;0.50;;;21.60;72.60;;;;;;5049905;28;20048;-47
2021/08/02 06:22:12;;;;;;;0.70;0.35;;;21.50;72.60;;;;;;5050193;28;20077;-48
2021/08/02 06:24:38;;;;;;;1.50;0.60;;;21.60;72.60;;;;;;5049656;28;20595;-48
2021/08/02 06:27:04;;;;;;;0.50;0.45;;;21.60;73.30;;;;;;5049308;28;20052;-50
2021/08/02 06:29:34;;;;;;;0.43;0.43;;;21.60;72.60;;;;;;5049372;28;20049;-49
2021/08/02 06:32:00;;;;;;;1.40;0.60;;;21.60;72.60;;;;;;5049261;28;20053;-46
2021/08/02 06:34:34;;;;;;;0.55;0.50;;;21.60;72.60;;;;;;5049676;28;20056;-46
2021/08/02 06:37:00;;;;;;;0.65;0.60;;;21.60;72.60;;;;;;5049196;28;20060;-46
2021/08/02 06:39:26;;;;;;;0.60;0.50;;;21.60;72.60;;;;;;5049660;28;20069;-46
2021/08/02 06:41:52;;;;;;;0.85;0.40;;;21.60;72.60;;;;;;5049678;28;20072;-46
2021/08/02 06:44:18;;;;;;;0.77;0.50;;;21.60;72.60;;;;;;5048925;28;20076;-46
2021/08/02 06:46:44;;;;;;;0.52;0.50;;;21.60;72.60;;;;;;5049219;28;20045;-45
2021/08/02 06:49:10;;;;;;;0.98;0.45;;;21.60;72.60;;;;;;5049319;28;20084;-46
2021/08/02 06:51:35;;;;;;;1.20;0.90;;;21.60;72.60;;;;;;5049412;28;20500;-44
2021/08/02 06:54:01;;;;;;;0.90;0.40;;;21.60;72.70;;;;;;5049458;28;20114;-44
2021/08/02 06:56:27;;;;;;;0.80;0.50;;;21.60;72.60;;;;;;5048192;28;20555;-45
2021/08/02 06:58:52;;;;;;;0.57;0.50;;;21.60;72.70;;;;;;5048696;28;20106;-46
2021/08/02 07:01:19;;;;;;;0.40;0.30;;;21.60;72.70;;;;;;5048411;28;20395;-48
2021/08/02 07:03:44;;;;;;;1.00;0.70;;;21.60;72.70;;;;;;5048725;28;20485;-46
2021/08/02 07:06:10;;;;;;;0.85;0.40;;;21.60;72.70;;;;;;5049010;28;20037;-43
2021/08/02 07:08:39;;;;;;;0.63;0.30;;;21.60;72.70;;;;;;5048231;28;20496;-46
2021/08/02 07:11:06;;;;;;;0.55;0.55;;;21.60;72.70;;;;;;5046201;28;20048;-45
2021/08/02 07:13:33;;;;;;;0.40;0.40;;;21.60;72.70;;;;;;5048492;28;20055;-44
2021/08/02 07:16:00;;;;;;;0.60;0.50;;;21.60;72.60;;;;;;5048364;28;20084;-47
2021/08/02 07:18:27;;;;;;;1.00;0.50;;;21.60;72.60;;;;;;5048542;28;20126;-46
2021/08/02 07:20:52;;;;;;;1.17;1.08;;;21.60;72.70;;;;;;5048589;28;20048;-45
2021/08/02 07:23:18;;;;;;;0.95;0.70;;;21.60;72.70;;;;;;5048824;28;20841;-49
2021/08/02 07:25:44;;;;;;;1.38;0.88;;;21.60;72.60;;;;;;5052312;28;20045;-47
2021/08/02 07:28:10;;;;;;;0.95;0.65;;;21.60;72.60;;;;;;5042105;28;20045;-43
2021/08/02 07:30:36;;;;;;;0.82;0.60;;;21.60;72.60;;;;;;5047051;28;20068;-46
2021/08/02 07:33:02;;;;;;;0.85;0.60;;;21.60;72.60;;;;;;5052123;28;20076;-44
2021/08/02 07:35:28;;;;;;;1.15;0.60;;;21.60;72.60;;;;;;5052701;28;20059;-45
2021/08/02 07:37:54;;;;;;;0.85;0.50;;;21.60;72.60;;;;;;5051391;28;20125;-45
2021/08/02 07:40:20;;;;;;;0.82;0.45;;;21.60;72.60;;;;;;5052099;28;20135;-44
2021/08/02 07:42:46;;;;;;;0.70;0.43;;;21.60;72.60;;;;;;5051843;28;20572;-46
2021/08/02 07:45:12;;;;;;;0.45;0.45;;;21.60;72.60;;;;;;5052353;28;20049;-46
2021/08/02 07:47:38;;;;;;;0.52;0.50;;;21.60;72.60;;;;;;5052114;28;20512;-46
2021/08/02 07:50:05;;;;;;;0.50;0.50;;;21.60;72.80;;;;;;5052344;28;20056;-49
2021/08/02 07:52:31;;;;;;;0.88;0.50;;;21.60;72.60;;;;;;5052748;28;20056;-49
2021/08/02 07:54:58;;;;;;;0.55;0.45;;;21.60;72.60;;;;;;5051940;28;20508;-48
2021/08/02 07:57:24;;;;;;;0.63;0.63;;;21.60;72.60;;;;;;5052477;28;20044;-44
2021/08/02 07:59:50;;;;;;;0.95;0.70;;;21.70;72.60;;;;;;5052654;28;20119;-45
2021/08/02 08:02:15;;;;;;;0.65;0.55;;;21.60;72.50;;;;;;5052455;28;20386;-44
2021/08/02 08:04:41;;;;;;;0.77;0.70;;;21.60;72.50;;;;;;5051662;28;20074;-48
2021/08/02 08:07:07;;;;;;;0.40;0.40;;;21.60;72.50;;;;;;5051563;28;20552;-48
2021/08/02 08:09:33;;;;;;;0.43;0.40;;;21.70;72.60;;;;;;5051561;28;20056;-45
2021/08/02 08:11:59;;;;;;;0.68;0.60;;;21.70;72.60;;;;;;5049286;28;20053;-47
2021/08/02 08:14:25;;;;;;;1.38;0.60;;;21.70;72.60;;;;;;5051873;28;20121;-44
2021/08/02 08:16:51;;;;;;;1.02;0.65;;;21.70;72.50;;;;;;5051892;28;20103;-45
2021/08/02 08:19:16;;;;;;;0.88;0.40;;;21.70;72.50;;;;;;5051202;28;20465;-45
2021/08/02 08:21:42;;;;;;;0.82;0.50;;;21.70;72.50;;;;;;5052034;28;20601;-45
2021/08/02 08:24:08;;;;;;;0.63;0.50;;;21.70;72.50;;;;;;5050320;28;20048;-48
2021/08/02 08:26:36;;;;;;;1.20;0.65;;;21.70;72.50;;;;;;5051533;28;20049;-45
2021/08/02 08:29:04;;;;;;;0.40;0.40;;;21.70;72.50;;;;;;5049258;28;20052;-44
2021/08/02 08:31:29;;;;;;;1.13;0.75;;;21.70;72.40;;;;;;5051334;28;20492;-44
2021/08/02 08:33:56;;;;;;;0.70;0.60;;;21.70;72.40;;;;;;5051307;28;20048;-46
2021/08/02 08:36:22;;;;;;;0.57;0.35;;;21.70;72.40;;;;;;5050851;28;20501;-42
2021/08/02 08:38:48;;;;;;;1.23;0.68;;;21.70;72.30;;;;;;5051258;28;20038;-46
2021/08/02 08:41:18;;;;;;;1.40;0.40;;;21.70;72.20;;;;;;5051002;28;20056;-45
2021/08/02 08:43:44;;;;;;;0.70;0.60;;;21.80;72.20;;;;;;5050815;28;20071;-44
2021/08/02 08:46:10;;;;;;;0.63;0.52;;;21.70;72.00;;;;;;5050905;28;20049;-44
2021/08/02 08:48:36;;;;;;;0.50;0.40;;;21.80;72.00;;;;;;5051243;28;20048;-43
2021/08/02 08:51:03;;;;;;;1.38;0.47;;;21.80;71.90;;;;;;5050710;28;20092;-45
2021/08/02 08:53:29;;;;;;;0.55;0.47;;;21.80;71.80;;;;;;5051654;28;20094;-44
2021/08/02 08:55:55;;;;;;;0.85;0.68;;;21.80;71.80;;;;;;5050846;28;20517;-44
2021/08/02 08:58:21;;;;;;;1.52;0.70;;;21.80;71.80;;;;;;5051577;28;20164;-44
2021/08/02 09:00:47;;;;;;;1.30;0.57;;;21.80;71.70;;;;;;5051304;28;20151;-45
2021/08/02 09:03:15;;;;;;;1.48;0.60;;;21.80;71.80;;;;;;5051458;28;20053;-45
2021/08/02 09:05:41;;;;;;;0.93;0.60;;;21.80;71.70;;;;;;5050901;28;20087;-47
2021/08/02 09:08:13;;;;;;;0.40;0.40;;;21.80;71.60;;;;;;5050632;28;20052;-45
2021/08/02 09:10:39;;;;;;;0.95;0.55;;;21.90;71.70;;;;;;5048297;28;20045;-46
2021/08/02 09:13:06;;;;;;;1.83;0.60;;;21.90;71.60;;;;;;5031188;28;20053;-48
2021/08/02 09:15:31;;;;;;;0.60;0.43;;;21.90;71.60;;;;;;5030972;28;20053;-47
2021/08/02 09:17:57;;;;;;;1.38;0.60;;;21.90;71.50;;;;;;5031180;28;20123;-50
2021/08/02 09:20:24;;;;;;;0.75;0.43;;;21.90;71.50;;;;;;5037702;28;20049;-45
2021/08/02 09:22:52;;;;;;;0.70;0.60;;;21.90;71.40;;;;;;5050668;28;20063;-49
2021/08/02 09:25:20;;;;;;;1.50;0.60;;;21.90;71.40;;;;;;5050496;28;20053;-45
2021/08/02 09:27:48;;;;;;;1.40;0.68;;;21.90;71.40;;;;;;5049732;28;20144;-45
2021/08/02 09:30:23;;;;;;;1.00;0.43;;;21.90;71.40;;;;;;5050571;28;20053;-51
2021/08/02 09:32:54;;;;;;;0.82;0.63;;;21.90;71.40;;;;;;5050020;28;20122;-48
2021/08/02 09:35:33;;;;;;;1.05;0.60;;;21.90;71.40;;;;;;5050818;28;20049;-46
2021/08/02 09:38:03;;;;;;;1.08;0.55;;;22.00;71.30;;;;;;5049949;28;20057;-49
2021/08/02 09:40:37;;;;;;;1.65;0.80;;;22.00;71.40;;;;;;5050354;28;20493;-46
2021/08/02 09:43:03;;;;;;;0.43;0.40;;;22.00;71.30;;;;;;5050063;28;20076;-47
2021/08/02 09:45:39;;;;;;;0.98;0.55;;;22.00;71.30;;;;;;5050497;28;20670;-51
2021/08/02 09:48:06;;;;;;;1.48;0.60;;;22.00;71.20;;;;;;5050133;28;20484;-46
2021/08/02 09:50:32;;;;;;;0.70;0.50;;;22.00;71.30;;;;;;5049163;28;20049;-47
2021/08/02 09:52:58;;;;;;;0.77;0.40;;;22.00;71.20;;;;;;5049930;28;20052;-46
2021/08/02 09:55:25;;;;;;;0.93;0.43;;;22.00;71.20;;;;;;5049718;28;20451;-45
2021/08/02 09:57:55;;;;;;;1.95;0.95;;;22.00;71.20;;;;;;5050181;28;20096;-45
2021/08/02 10:00:22;;;;;;;1.73;0.65;;;22.00;71.20;;;;;;5049966;28;20150;-46
2021/08/02 10:02:51;;;;;;;0.40;0.40;;;22.00;71.10;;;;;;5049791;28;20774;-46
2021/08/02 10:05:18;;;;;;;1.15;0.63;;;22.00;71.10;;;;;;5050131;28;20049;-46
2021/08/02 10:07:45;;;;;;;1.73;0.88;;;22.00;71.10;;;;;;5049303;28;20099;-44
2021/08/02 10:10:12;;;;;;;0.68;0.50;;;22.00;71.20;;;;;;5050039;28;20045;-45
2021/08/02 10:12:43;;;;;;;1.73;0.50;;;22.00;71.10;;;;;;5052978;28;20088;-44
2021/08/02 10:15:16;;;;;;;0.98;0.52;;;22.00;71.10;;;;;;5052888;28;20045;-45
2021/08/02 10:17:48;;;;;;;1.55;0.65;;;22.10;71.10;;;;;;5050277;28;20041;-48
2021/08/02 10:20:28;;;;;;;0.77;0.40;;;22.10;71.10;;;;;;5047486;28;20072;-50
2021/08/02 10:22:55;;;;;;;0.40;0.30;;;22.10;71.10;;;;;;5048247;28;20064;-50
2021/08/02 10:25:35;;;;;;;0.50;0.40;;;22.10;71.10;;;;;;5047801;28;20402;-52
2021/08/02 10:28:14;;;;;;;0.40;0.40;;;22.10;71.10;;;;;;5049272;28;20446;-50
2021/08/02 10:30:42;;;;;;;0.55;0.55;;;22.10;71.10;;;;;;5048573;28;20041;-49
2021/08/02 10:33:09;;;;;;;1.88;0.60;;;22.10;71.10;;;;;;5048897;28;20572;-46
2021/08/02 10:35:42;;;;;;;0.28;0.20;;;22.10;71.10;;;;;;5049315;28;20045;-49
2021/08/02 10:38:16;;;;;;;0.88;0.50;;;22.10;71.00;;;;;;5046942;28;20049;-46
2021/08/02 10:41:02;;;;;;;0.55;0.47;;;22.10;71.10;;;;;;5048791;28;20120;-47
2021/08/02 10:43:34;;;;;;;1.75;0.60;;;22.10;71.00;;;;;;5047777;28;20060;-47
2021/08/02 10:46:13;;;;;;;0.73;0.57;;;22.10;71.00;;;;;;5048874;28;20052;-47
2021/08/02 10:48:39;;;;;;;0.77;0.60;;;22.10;71.00;;;;;;5051998;28;20394;-53
2021/08/02 10:51:10;;;;;;;0.63;0.50;;;22.10;71.00;;;;;;5051635;28;20048;-46
2021/08/02 10:53:36;;;;;;;1.10;0.50;;;22.10;71.00;;;;;;5052319;28;20521;-48
2021/08/02 10:56:02;;;;;;;0.88;0.50;;;22.10;71.00;;;;;;5052345;28;20068;-48
2021/08/02 10:58:28;;;;;;;48.53;6.07;;;22.10;71.60;;;;;;5052824;28;20056;-48
2021/08/02 11:00:59;;;;;;;47.38;5.57;;;22.10;68.80;;;;;;5052728;28;20052;-54
2021/08/02 11:03:35;;;;;;;49.83;6.93;;;21.90;67.40;;;;;;5050971;28;20044;-53
2021/08/02 11:06:13;;;;;;;43.45;5.07;;;21.90;67.00;;;;;;5052919;28;20045;-53
2021/08/02 11:08:53;;;;;;;33.53;5.13;;;21.90;66.80;;;;;;5052727;28;20048;-49
2021/08/02 11:11:30;;;;;;;34.35;4.55;;;21.90;66.80;;;;;;5052574;28;20045;-54
2021/08/02 11:14:05;;;;;;;33.42;3.83;;;21.90;67.00;;;;;;5051045;28;20048;-55
2021/08/02 11:16:39;;;;;;;28.38;3.80;;;21.90;67.10;;;;;;5052426;28;20053;-55
2021/08/02 11:19:14;;;;;;;23.70;3.90;;;21.90;67.40;;;;;;5052600;28;20051;-54
2021/08/02 11:21:40;;;;;;;19.85;2.83;;;21.90;67.50;;;;;;5052764;28;20087;-54
2021/08/02 11:24:09;;;;;;;17.98;2.67;;;21.90;67.70;;;;;;5051345;28;20486;-52
2021/08/02 11:26:53;;;;;;;19.95;3.28;;;22.00;68.00;;;;;;5032593;28;20421;-53
2021/08/02 11:29:21;;;;;;;17.40;2.90;;;22.00;68.10;;;;;;5032480;28;20056;-53
2021/08/02 11:31:57;;;;;;;14.32;3.13;;;22.00;68.30;;;;;;5032660;28;20045;-51
2021/08/02 11:34:23;;;;;;;15.57;2.83;;;22.00;68.40;;;;;;5052126;28;20497;-50
2021/08/02 11:37:06;;;;;;;10.70;2.60;;;22.00;68.60;;;;;;5035173;28;20474;-53
2021/08/02 11:39:33;;;;;;;14.23;2.78;;;22.00;68.70;;;;;;5047891;28;20060;-51
2021/08/02 11:42:07;;;;;;;14.68;2.38;;;22.00;68.80;;;;;;5052296;28;20051;-53
2021/08/02 11:44:35;;;;;;;17.67;2.40;;;22.00;68.90;;;;;;5051594;28;20052;-55
2021/08/02 11:47:03;;;;;;;16.52;2.45;;;22.00;69.00;;;;;;5050955;28;20041;-54
2021/08/02 11:49:32;;;;;;;8.48;2.17;;;22.10;69.10;;;;;;5052656;28;20049;-52
2021/08/02 11:51:59;;;;;;;8.48;2.35;;;22.10;69.20;;;;;;5050360;28;20556;-49
2021/08/02 11:54:26;;;;;;;7.65;2.08;;;22.10;69.20;;;;;;5047382;28;20512;-47
2021/08/02 11:56:53;;;;;;;10.98;2.88;;;22.10;69.30;;;;;;5046565;28;20076;-50
2021/08/02 11:59:23;;;;;;;9.07;2.38;;;22.10;69.30;;;;;;5047776;28;20457;-47
2021/08/02 12:01:52;;;;;;;6.78;1.70;;;22.10;69.30;;;;;;5048310;28;20049;-49
2021/08/02 12:04:18;;;;;;;5.97;2.00;;;22.10;69.40;;;;;;5048459;28;20048;-48
2021/08/02 12:06:56;;;;;;;5.18;1.38;;;22.10;69.40;;;;;;5048085;28;20084;-48
2021/08/02 12:09:36;;;;;;;9.20;1.88;;;22.10;69.40;;;;;;5028178;28;20121;-48
2021/08/02 12:12:04;;;;;;;7.35;1.73;;;22.10;69.40;;;;;;5028777;28;20058;-46
2021/08/02 12:14:31;;;;;;;4.60;1.50;;;22.10;69.50;;;;;;5047029;28;20102;-49
2021/08/02 12:17:02;;;;;;;9.18;2.08;;;22.20;69.50;;;;;;5049069;28;20045;-48
2021/08/02 12:19:30;;;;;;;5.07;1.30;;;22.20;69.50;;;;;;5047510;28;20060;-51
2021/08/02 12:21:59;;;;;;;7.40;1.65;;;22.20;69.50;;;;;;5051310;28;20056;-47
2021/08/02 12:24:25;;;;;;;4.55;1.10;;;22.20;69.50;;;;;;5051446;28;20555;-50
2021/08/02 12:26:54;;;;;;;7.97;2.03;;;22.10;69.50;;;;;;5051768;28;20067;-49
2021/08/02 12:29:27;;;;;;;4.80;1.30;;;22.30;69.60;;;;;;5045655;28;20451;-48
2021/08/02 12:31:59;;;;;;;6.15;1.58;;;22.30;69.60;;;;;;5051179;28;20052;-49
2021/08/02 12:34:25;;;;;;;6.60;1.02;;;22.20;69.50;;;;;;5050763;28;20045;-49
2021/08/02 12:36:53;;;;;;;3.88;1.30;;;22.30;69.60;;;;;;5051957;28;20556;-50
2021/08/02 12:39:18;;;;;;;5.97;1.55;;;22.30;69.60;;;;;;5047822;28;20176;-48
2021/08/02 12:41:44;;;;;;;6.20;1.55;;;22.30;69.60;;;;;;5032025;28;20160;-54
2021/08/02 12:44:10;;;;;;;2.90;1.23;;;22.30;69.50;;;;;;5040371;28;20045;-48
2021/08/02 12:46:35;;;;;;;4.43;0.88;;;22.40;69.60;;;;;;5051133;28;20052;-46
2021/08/02 12:49:01;;;;;;;3.80;1.42;;;22.30;69.50;;;;;;5051491;28;20045;-50
2021/08/02 12:51:27;;;;;;;3.85;1.10;;;22.40;69.60;;;;;;5049884;28;20421;-49
2021/08/02 12:53:53;;;;;;;3.30;0.90;;;22.40;69.50;;;;;;5051466;28;20053;-49